sensor_id;sensor_type;location;lat;lon;timestamp;P1;durP1;ratioP1;P2;durP2;ratioP2
21868;SDS011;11099;41.564;23.296;2022-10-16T00:02:08;5.15;;;4.65;;
21868;SDS011;11099;41.564;23.296;2022-10-16T00:04:47;4.97;;;4.47;;
21868;SDS011;11099;41.564;23.296;2022-10-16T00:07:26;5.13;;;4.65;;
21868;SDS011;11099;41.564;23.296;2022-10-16T00:10:01;7.45;;;4.88;;
21868;SDS011;11099;41.564;23.296;2022-10-16T01:16:17;4.85;;;4.35;;
21868;SDS011;11099;41.564;23.296;2022-10-16T02:48:30;7.55;;;4.88;;
21868;SDS011;11099;41.564;23.296;2022-10-16T02:51:15;6.72;;;5.00;;
21868;SDS011;11099;41.564;23.296;2022-10-16T02:54:19;6.60;;;4.55;;
21868;SDS011;11099;41.564;23.296;2022-10-16T02:57:00;7.88;;;5.00;;
21868;SDS011;11099;41.564;23.296;2022-10-16T03:21:20;6.13;;;5.25;;
21868;SDS011;11099;41.564;23.296;2022-10-16T03:23:50;7.30;;;5.22;;
21868;SDS011;11099;41.564;23.296;2022-10-16T03:45:09;9.85;;;5.43;;
21868;SDS011;11099;41.564;23.296;2022-10-16T03:47:39;7.40;;;4.80;;
21868;SDS011;11099;41.564;23.296;2022-10-16T03:52:44;6.15;;;5.47;;
21868;SDS011;11099;41.564;23.296;2022-10-16T03:55:20;6.75;;;5.30;;
21868;SDS011;11099;41.564;23.296;2022-10-16T03:57:50;6.43;;;5.25;;
21868;SDS011;11099;41.564;23.296;2022-10-16T04:00:22;6.35;;;4.97;;
21868;SDS011;11099;41.564;23.296;2022-10-16T04:02:56;5.45;;;4.90;;
21868;SDS011;11099;41.564;23.296;2022-10-16T04:05:28;7.00;;;4.55;;
21868;SDS011;11099;41.564;23.296;2022-10-16T04:08:23;6.95;;;5.72;;
21868;SDS011;11099;41.564;23.296;2022-10-16T04:10:54;7.25;;;5.43;;
21868;SDS011;11099;41.564;23.296;2022-10-16T04:13:31;7.07;;;5.00;;
21868;SDS011;11099;41.564;23.296;2022-10-16T04:19:02;6.25;;;5.25;;
21868;SDS011;11099;41.564;23.296;2022-10-16T04:21:33;6.88;;;5.07;;
21868;SDS011;11099;41.564;23.296;2022-10-16T04:24:12;7.82;;;5.70;;
21868;SDS011;11099;41.564;23.296;2022-10-16T04:26:45;6.85;;;5.68;;
21868;SDS011;11099;41.564;23.296;2022-10-16T04:29:19;8.23;;;5.25;;
21868;SDS011;11099;41.564;23.296;2022-10-16T04:34:56;5.55;;;5.05;;
21868;SDS011;11099;41.564;23.296;2022-10-16T04:37:42;6.72;;;5.00;;
21868;SDS011;11099;41.564;23.296;2022-10-16T04:41:00;8.73;;;5.40;;
21868;SDS011;11099;41.564;23.296;2022-10-16T04:43:46;6.53;;;5.05;;
21868;SDS011;11099;41.564;23.296;2022-10-16T04:46:13;5.68;;;5.15;;
21868;SDS011;11099;41.564;23.296;2022-10-16T04:48:54;6.63;;;5.25;;
21868;SDS011;11099;41.564;23.296;2022-10-16T04:51:35;7.93;;;5.57;;
21868;SDS011;11099;41.564;23.296;2022-10-16T04:54:08;8.50;;;5.30;;
21868;SDS011;11099;41.564;23.296;2022-10-16T04:56:41;6.45;;;5.68;;
21868;SDS011;11099;41.564;23.296;2022-10-16T04:59:14;7.63;;;5.35;;
21868;SDS011;11099;41.564;23.296;2022-10-16T05:02:09;5.10;;;4.60;;
21868;SDS011;11099;41.564;23.296;2022-10-16T05:04:41;8.05;;;5.15;;
21868;SDS011;11099;41.564;23.296;2022-10-16T05:07:10;6.00;;;5.10;;
21868;SDS011;11099;41.564;23.296;2022-10-16T05:09:39;6.07;;;5.47;;
21868;SDS011;11099;41.564;23.296;2022-10-16T05:12:13;5.65;;;4.85;;
21868;SDS011;11099;41.564;23.296;2022-10-16T05:14:54;9.15;;;5.50;;
21868;SDS011;11099;41.564;23.296;2022-10-16T05:17:29;8.13;;;5.47;;
21868;SDS011;11099;41.564;23.296;2022-10-16T05:20:25;6.80;;;5.25;;
21868;SDS011;11099;41.564;23.296;2022-10-16T05:23:15;8.10;;;5.13;;
21868;SDS011;11099;41.564;23.296;2022-10-16T05:26:11;7.05;;;4.78;;
21868;SDS011;11099;41.564;23.296;2022-10-16T05:28:55;5.00;;;4.10;;
21868;SDS011;11099;41.564;23.296;2022-10-16T05:36:57;10.13;;;5.35;;
21868;SDS011;11099;41.564;23.296;2022-10-16T05:40:04;6.03;;;4.72;;
21868;SDS011;11099;41.564;23.296;2022-10-16T05:42:59;5.63;;;4.40;;
21868;SDS011;11099;41.564;23.296;2022-10-16T05:54:52;6.65;;;4.65;;
21868;SDS011;11099;41.564;23.296;2022-10-16T05:57:33;6.65;;;4.93;;
21868;SDS011;11099;41.564;23.296;2022-10-16T09:11:07;7.18;;;4.57;;
21868;SDS011;11099;41.564;23.296;2022-10-16T09:13:50;6.60;;;4.00;;
21868;SDS011;11099;41.564;23.296;2022-10-16T09:16:25;9.07;;;4.60;;
21868;SDS011;11099;41.564;23.296;2022-10-16T09:21:49;9.88;;;4.22;;
21868;SDS011;11099;41.564;23.296;2022-10-16T09:24:17;4.78;;;4.38;;
21868;SDS011;11099;41.564;23.296;2022-10-16T09:26:45;4.90;;;4.40;;
21868;SDS011;11099;41.564;23.296;2022-10-16T09:29:15;5.50;;;4.57;;
21868;SDS011;11099;41.564;23.296;2022-10-16T09:31:45;6.80;;;4.68;;
21868;SDS011;11099;41.564;23.296;2022-10-16T09:34:18;5.78;;;5.10;;
21868;SDS011;11099;41.564;23.296;2022-10-16T09:36:52;8.35;;;4.88;;
21868;SDS011;11099;41.564;23.296;2022-10-16T09:39:23;8.38;;;4.97;;
21868;SDS011;11099;41.564;23.296;2022-10-16T09:59:45;9.03;;;5.37;;
21868;SDS011;11099;41.564;23.296;2022-10-16T10:04:56;5.28;;;4.82;;
21868;SDS011;11099;41.564;23.296;2022-10-16T10:12:41;5.78;;;4.20;;
21868;SDS011;11099;41.564;23.296;2022-10-16T10:23:31;6.45;;;5.03;;
21868;SDS011;11099;41.564;23.296;2022-10-16T10:37:20;6.22;;;5.07;;
21868;SDS011;11099;41.564;23.296;2022-10-16T10:40:24;7.38;;;4.43;;
21868;SDS011;11099;41.564;23.296;2022-10-16T10:42:53;6.80;;;4.82;;
21868;SDS011;11099;41.564;23.296;2022-10-16T10:46:03;6.32;;;5.03;;
21868;SDS011;11099;41.564;23.296;2022-10-16T10:49:03;5.43;;;4.70;;
21868;SDS011;11099;41.564;23.296;2022-10-16T10:51:53;7.75;;;4.70;;
21868;SDS011;11099;41.564;23.296;2022-10-16T10:54:27;6.13;;;4.72;;
21868;SDS011;11099;41.564;23.296;2022-10-16T11:05:56;8.27;;;4.68;;
21868;SDS011;11099;41.564;23.296;2022-10-16T11:08:34;4.80;;;4.05;;
21868;SDS011;11099;41.564;23.296;2022-10-16T11:11:06;4.57;;;3.95;;
21868;SDS011;11099;41.564;23.296;2022-10-16T11:14:18;4.65;;;4.07;;
21868;SDS011;11099;41.564;23.296;2022-10-16T11:19:44;7.85;;;4.82;;
21868;SDS011;11099;41.564;23.296;2022-10-16T11:25:13;5.72;;;4.22;;
21868;SDS011;11099;41.564;23.296;2022-10-16T11:33:22;6.88;;;4.45;;
21868;SDS011;11099;41.564;23.296;2022-10-16T11:39:21;6.95;;;4.30;;
21868;SDS011;11099;41.564;23.296;2022-10-16T11:50:01;4.05;;;3.75;;
21868;SDS011;11099;41.564;23.296;2022-10-16T11:52:43;5.82;;;3.97;;
21868;SDS011;11099;41.564;23.296;2022-10-16T11:55:18;7.90;;;4.32;;
21868;SDS011;11099;41.564;23.296;2022-10-16T11:57:52;6.93;;;3.95;;
21868;SDS011;11099;41.564;23.296;2022-10-16T12:08:30;3.17;;;2.90;;
21868;SDS011;11099;41.564;23.296;2022-10-16T12:14:22;3.90;;;3.60;;
21868;SDS011;11099;41.564;23.296;2022-10-16T12:17:02;4.07;;;3.27;;
21868;SDS011;11099;41.564;23.296;2022-10-16T12:20:00;4.65;;;3.60;;
21868;SDS011;11099;41.564;23.296;2022-10-16T12:25:53;5.65;;;3.25;;
21868;SDS011;11099;41.564;23.296;2022-10-16T12:28:21;4.03;;;3.33;;
21868;SDS011;11099;41.564;23.296;2022-10-16T12:30:56;3.53;;;3.20;;
21868;SDS011;11099;41.564;23.296;2022-10-16T12:33:33;4.85;;;3.45;;
21868;SDS011;11099;41.564;23.296;2022-10-16T12:36:01;5.07;;;3.42;;
21868;SDS011;11099;41.564;23.296;2022-10-16T12:38:35;3.70;;;3.40;;
21868;SDS011;11099;41.564;23.296;2022-10-16T12:41:10;3.60;;;3.30;;
21868;SDS011;11099;41.564;23.296;2022-10-16T12:46:43;3.80;;;3.50;;
21868;SDS011;11099;41.564;23.296;2022-10-16T12:51:37;4.10;;;3.80;;
21868;SDS011;11099;41.564;23.296;2022-10-16T12:54:19;7.85;;;4.13;;
21868;SDS011;11099;41.564;23.296;2022-10-16T13:05:53;5.25;;;3.10;;
21868;SDS011;11099;41.564;23.296;2022-10-16T13:21:59;5.78;;;3.50;;
21868;SDS011;11099;41.564;23.296;2022-10-16T13:27:56;5.65;;;3.78;;
21868;SDS011;11099;41.564;23.296;2022-10-16T13:33:32;4.15;;;3.83;;
21868;SDS011;11099;41.564;23.296;2022-10-16T13:36:00;4.00;;;3.65;;
21868;SDS011;11099;41.564;23.296;2022-10-16T13:38:27;4.40;;;3.47;;
21868;SDS011;11099;41.564;23.296;2022-10-16T13:41:01;5.97;;;4.10;;
21868;SDS011;11099;41.564;23.296;2022-10-16T13:43:34;5.78;;;4.40;;
21868;SDS011;11099;41.564;23.296;2022-10-16T13:46:06;5.47;;;4.10;;
21868;SDS011;11099;41.564;23.296;2022-10-16T13:48:37;6.03;;;4.20;;
21868;SDS011;11099;41.564;23.296;2022-10-16T13:53:34;6.47;;;4.90;;
21868;SDS011;11099;41.564;23.296;2022-10-16T13:56:01;4.95;;;4.40;;
21868;SDS011;11099;41.564;23.296;2022-10-16T13:58:31;5.95;;;4.40;;
21868;SDS011;11099;41.564;23.296;2022-10-16T14:00:58;6.72;;;4.55;;
21868;SDS011;11099;41.564;23.296;2022-10-16T14:03:29;5.25;;;4.75;;
21868;SDS011;11099;41.564;23.296;2022-10-16T14:06:00;6.13;;;5.05;;
21868;SDS011;11099;41.564;23.296;2022-10-16T14:08:31;5.70;;;5.10;;
21868;SDS011;11099;41.564;23.296;2022-10-16T14:10:59;5.70;;;5.10;;
21868;SDS011;11099;41.564;23.296;2022-10-16T14:13:29;5.43;;;4.93;;
21868;SDS011;11099;41.564;23.296;2022-10-16T14:16:09;5.93;;;5.32;;
21868;SDS011;11099;41.564;23.296;2022-10-16T14:18:41;4.70;;;4.22;;
21868;SDS011;11099;41.564;23.296;2022-10-16T14:21:20;6.03;;;4.60;;
21868;SDS011;11099;41.564;23.296;2022-10-16T14:23:45;5.88;;;4.85;;
21868;SDS011;11099;41.564;23.296;2022-10-16T14:26:12;5.00;;;4.50;;
21868;SDS011;11099;41.564;23.296;2022-10-16T14:28:40;6.10;;;4.43;;
21868;SDS011;11099;41.564;23.296;2022-10-16T14:31:41;6.10;;;4.82;;
21868;SDS011;11099;41.564;23.296;2022-10-16T14:34:01;5.95;;;4.90;;
21868;SDS011;11099;41.564;23.296;2022-10-16T14:36:27;7.00;;;5.55;;
21868;SDS011;11099;41.564;23.296;2022-10-16T14:41:22;10.02;;;8.20;;
21868;SDS011;11099;41.564;23.296;2022-10-16T14:43:56;9.73;;;8.15;;
21868;SDS011;11099;41.564;23.296;2022-10-16T14:57:50;9.50;;;6.47;;
21868;SDS011;11099;41.564;23.296;2022-10-16T15:06:27;8.40;;;6.72;;
21868;SDS011;11099;41.564;23.296;2022-10-16T15:08:53;9.93;;;6.75;;
21868;SDS011;11099;41.564;23.296;2022-10-16T15:11:18;9.60;;;8.63;;
21868;SDS011;11099;41.564;23.296;2022-10-16T15:13:45;24.50;;;18.95;;
21868;SDS011;11099;41.564;23.296;2022-10-16T15:16:12;17.80;;;14.63;;
21868;SDS011;11099;41.564;23.296;2022-10-16T15:18:40;13.98;;;12.48;;
21868;SDS011;11099;41.564;23.296;2022-10-16T15:21:05;30.75;;;20.30;;
21868;SDS011;11099;41.564;23.296;2022-10-16T15:23:31;18.52;;;11.52;;
21868;SDS011;11099;41.564;23.296;2022-10-16T15:25:57;19.70;;;14.27;;
21868;SDS011;11099;41.564;23.296;2022-10-16T15:28:23;58.85;;;37.88;;
21868;SDS011;11099;41.564;23.296;2022-10-16T15:30:52;112.80;;;68.43;;
21868;SDS011;11099;41.564;23.296;2022-10-16T15:33:25;312.83;;;151.90;;
21868;SDS011;11099;41.564;23.296;2022-10-16T15:35:59;213.80;;;104.65;;
21868;SDS011;11099;41.564;23.296;2022-10-16T15:38:25;15.90;;;10.80;;
